sensor_id;sensor_type;location;lat;lon;timestamp;pressure;altitude;pressure_sealevel;temperature;humidity
46846;BME280;33947;46.804;134.252;2023-05-10T00:02:15;101085.91;;;13.14;44.75
46846;BME280;33947;46.804;134.252;2023-05-10T00:05:39;101155.66;;;14.48;43.33
46846;BME280;33947;46.804;134.252;2023-05-10T00:08:46;101145.19;;;14.69;42.78
46846;BME280;33947;46.804;134.252;2023-05-10T00:12:01;101124.00;;;14.09;43.68
46846;BME280;33947;46.804;134.252;2023-05-10T00:18:58;101153.16;;;14.44;43.68
46846;BME280;33947;46.804;134.252;2023-05-10T00:22:03;101145.97;;;15.47;41.15
46846;BME280;33947;46.804;134.252;2023-05-10T00:25:07;101148.66;;;15.24;41.49
46846;BME280;33947;46.804;134.252;2023-05-10T00:28:11;101151.09;;;15.77;41.18
46846;BME280;33947;46.804;134.252;2023-05-10T00:31:15;101144.66;;;15.10;41.74
46846;BME280;33947;46.804;134.252;2023-05-10T00:34:19;101149.84;;;14.62;43.33
46846;BME280;33947;46.804;134.252;2023-05-10T00:37:24;101150.50;;;14.44;43.68
46846;BME280;33947;46.804;134.252;2023-05-10T00:40:29;101143.22;;;15.25;42.29
46846;BME280;33947;46.804;134.252;2023-05-10T00:43:39;101136.00;;;16.64;39.76
46846;BME280;33947;46.804;134.252;2023-05-10T00:46:44;101136.97;;;18.91;35.27
46846;BME280;33947;46.804;134.252;2023-05-10T00:49:49;101153.13;;;20.71;32.80
46846;BME280;33947;46.804;134.252;2023-05-10T00:53:06;101143.56;;;21.54;31.49
46846;BME280;33947;46.804;134.252;2023-05-10T00:56:10;101136.84;;;21.47;32.07
46846;BME280;33947;46.804;134.252;2023-05-10T00:59:23;101138.72;;;20.56;32.74
46846;BME280;33947;46.804;134.252;2023-05-10T01:02:28;101159.72;;;18.86;36.35
46846;BME280;33947;46.804;134.252;2023-05-10T01:05:34;101150.94;;;19.51;35.20
46846;BME280;33947;46.804;134.252;2023-05-10T01:08:39;101149.53;;;19.60;34.99
46846;BME280;33947;46.804;134.252;2023-05-10T01:11:43;101167.63;;;18.89;36.60
46846;BME280;33947;46.804;134.252;2023-05-10T01:14:48;101159.88;;;19.18;33.69
46846;BME280;33947;46.804;134.252;2023-05-10T01:18:01;101172.41;;;21.10;32.13
46846;BME280;33947;46.804;134.252;2023-05-10T01:28:08;101167.00;;;17.33;35.47
46846;BME280;33947;46.804;134.252;2023-05-10T01:35:03;101145.63;;;17.51;35.96
46846;BME280;33947;46.804;134.252;2023-05-10T01:38:32;101161.31;;;17.20;36.93
46846;BME280;33947;46.804;134.252;2023-05-10T01:41:51;101169.50;;;16.76;37.96
46846;BME280;33947;46.804;134.252;2023-05-10T01:48:09;101160.63;;;16.09;39.07
46846;BME280;33947;46.804;134.252;2023-05-10T01:51:21;101146.78;;;16.19;38.75
46846;BME280;33947;46.804;134.252;2023-05-10T01:54:30;101156.81;;;15.92;39.37
46846;BME280;33947;46.804;134.252;2023-05-10T01:57:39;101164.69;;;15.73;39.87
46846;BME280;33947;46.804;134.252;2023-05-10T02:00:46;101135.91;;;15.30;40.02
46846;BME280;33947;46.804;134.252;2023-05-10T02:03:57;101164.03;;;14.65;42.09
46846;BME280;33947;46.804;134.252;2023-05-10T02:07:02;101154.88;;;14.73;42.02
46846;BME280;33947;46.804;134.252;2023-05-10T02:10:07;101156.66;;;14.73;41.83
46846;BME280;33947;46.804;134.252;2023-05-10T02:13:16;101140.34;;;14.81;41.49
46846;BME280;33947;46.804;134.252;2023-05-10T02:16:24;101164.50;;;14.79;41.63
46846;BME280;33947;46.804;134.252;2023-05-10T02:19:32;101150.31;;;14.48;41.87
46846;BME280;33947;46.804;134.252;2023-05-10T02:23:01;101179.06;;;14.70;42.50
46846;BME280;33947;46.804;134.252;2023-05-10T02:27:41;101063.16;;;14.44;41.38
46846;BME280;33947;46.804;134.252;2023-05-10T02:35:55;101078.63;;;14.08;42.56
46846;BME280;33947;46.804;134.252;2023-05-10T02:39:55;101167.81;;;14.32;42.79
46846;BME280;33947;46.804;134.252;2023-05-10T02:43:06;101182.56;;;14.44;42.00
46846;BME280;33947;46.804;134.252;2023-05-10T02:46:13;101153.06;;;14.18;42.02
46846;BME280;33947;46.804;134.252;2023-05-10T02:49:18;101162.84;;;14.19;42.44
46846;BME280;33947;46.804;134.252;2023-05-10T02:52:29;101153.44;;;14.35;42.73
46846;BME280;33947;46.804;134.252;2023-05-10T02:55:38;101175.53;;;14.13;42.80
46846;BME280;33947;46.804;134.252;2023-05-10T02:58:44;101142.00;;;13.74;43.46
46846;BME280;33947;46.804;134.252;2023-05-10T03:01:51;101168.00;;;14.26;43.43
46846;BME280;33947;46.804;134.252;2023-05-10T03:05:07;101168.97;;;14.23;43.23
46846;BME280;33947;46.804;134.252;2023-05-10T03:08:13;101161.56;;;14.31;42.91
46846;BME280;33947;46.804;134.252;2023-05-10T03:15:10;101165.28;;;13.99;43.61
46846;BME280;33947;46.804;134.252;2023-05-10T03:18:37;101166.91;;;14.04;44.41
46846;BME280;33947;46.804;134.252;2023-05-10T03:21:51;101177.75;;;14.82;43.14
46846;BME280;33947;46.804;134.252;2023-05-10T03:24:58;101179.09;;;14.94;42.82
46846;BME280;33947;46.804;134.252;2023-05-10T03:28:36;101096.63;;;14.55;42.60
46846;BME280;33947;46.804;134.252;2023-05-10T03:31:42;101103.59;;;14.60;42.86
46846;BME280;33947;46.804;134.252;2023-05-10T03:35:51;101099.53;;;13.66;44.80
46846;BME280;33947;46.804;134.252;2023-05-10T03:40:25;101076.75;;;13.54;44.50
46846;BME280;33947;46.804;134.252;2023-05-10T03:45:03;101183.06;;;14.00;45.16
46846;BME280;33947;46.804;134.252;2023-05-10T03:48:56;101088.69;;;13.11;46.26
46846;BME280;33947;46.804;134.252;2023-05-10T03:53:31;101055.84;;;13.09;46.30
46846;BME280;33947;46.804;134.252;2023-05-10T03:58:10;101044.63;;;13.27;47.45
46846;BME280;33947;46.804;134.252;2023-05-10T04:02:06;101021.91;;;14.26;45.57
46846;BME280;33947;46.804;134.252;2023-05-10T04:11:28;101174.19;;;14.28;46.82
46846;BME280;33947;46.804;134.252;2023-05-10T04:15:07;101114.38;;;14.84;44.71
46846;BME280;33947;46.804;134.252;2023-05-10T04:18:53;101159.00;;;15.33;44.08
46846;BME280;33947;46.804;134.252;2023-05-10T04:23:14;101155.34;;;15.83;43.38
46846;BME280;33947;46.804;134.252;2023-05-10T04:31:04;101142.22;;;16.44;41.90
46846;BME280;33947;46.804;134.252;2023-05-10T04:34:12;101079.63;;;14.84;43.68
46846;BME280;33947;46.804;134.252;2023-05-10T04:37:15;101123.00;;;15.42;44.08
46846;BME280;33947;46.804;134.252;2023-05-10T04:40:41;101145.91;;;16.19;42.80
46846;BME280;33947;46.804;134.252;2023-05-10T04:43:45;101094.88;;;16.00;41.84
46846;BME280;33947;46.804;134.252;2023-05-10T04:46:49;101106.31;;;15.81;41.25
46846;BME280;33947;46.804;134.252;2023-05-10T04:50:22;101131.69;;;15.95;42.94
46846;BME280;33947;46.804;134.252;2023-05-10T04:53:28;101106.00;;;15.89;42.51
46846;BME280;33947;46.804;134.252;2023-05-10T04:56:33;101099.06;;;15.37;43.15
46846;BME280;33947;46.804;134.252;2023-05-10T04:59:37;101091.25;;;16.01;41.91
46846;BME280;33947;46.804;134.252;2023-05-10T05:02:44;101117.28;;;15.03;43.67
46846;BME280;33947;46.804;134.252;2023-05-10T05:05:49;101110.44;;;14.95;44.11
46846;BME280;33947;46.804;134.252;2023-05-10T05:08:55;101088.66;;;15.05;43.05
46846;BME280;33947;46.804;134.252;2023-05-10T05:12:04;101048.84;;;15.20;42.62
46846;BME280;33947;46.804;134.252;2023-05-10T05:16:07;101069.09;;;15.51;42.29
46846;BME280;33947;46.804;134.252;2023-05-10T05:19:17;101097.63;;;15.74;42.11
46846;BME280;33947;46.804;134.252;2023-05-10T05:22:24;101062.94;;;15.25;42.38
46846;BME280;33947;46.804;134.252;2023-05-10T05:25:31;101083.31;;;15.75;42.09
46846;BME280;33947;46.804;134.252;2023-05-10T05:28:39;101086.50;;;15.39;42.17
46846;BME280;33947;46.804;134.252;2023-05-10T05:31:49;101091.47;;;15.96;41.88
46846;BME280;33947;46.804;134.252;2023-05-10T05:35:45;101077.25;;;15.48;42.21
46846;BME280;33947;46.804;134.252;2023-05-10T05:38:58;101092.56;;;15.67;41.75
46846;BME280;33947;46.804;134.252;2023-05-10T05:42:04;101098.66;;;15.24;41.73
46846;BME280;33947;46.804;134.252;2023-05-10T05:45:08;101088.53;;;15.78;41.81
46846;BME280;33947;46.804;134.252;2023-05-10T05:48:16;101079.34;;;16.08;40.92
46846;BME280;33947;46.804;134.252;2023-05-10T05:51:20;101083.09;;;16.04;40.75
46846;BME280;33947;46.804;134.252;2023-05-10T05:54:24;101088.66;;;15.53;41.61
46846;BME280;33947;46.804;134.252;2023-05-10T05:57:29;101082.91;;;15.62;41.39
46846;BME280;33947;46.804;134.252;2023-05-10T06:00:36;101085.00;;;15.56;41.74
46846;BME280;33947;46.804;134.252;2023-05-10T06:03:40;101069.00;;;15.07;41.69
46846;BME280;33947;46.804;134.252;2023-05-10T06:06:46;101079.09;;;15.22;42.07
46846;BME280;33947;46.804;134.252;2023-05-10T06:09:55;101089.81;;;15.46;41.73
46846;BME280;33947;46.804;134.252;2023-05-10T06:12:59;101071.16;;;15.21;41.90
46846;BME280;33947;46.804;134.252;2023-05-10T06:16:09;101094.28;;;15.45;41.76
46846;BME280;33947;46.804;134.252;2023-05-10T06:19:16;101104.09;;;14.72;42.84
46846;BME280;33947;46.804;134.252;2023-05-10T06:22:20;101091.13;;;14.86;42.63
46846;BME280;33947;46.804;134.252;2023-05-10T06:25:26;101089.00;;;14.71;42.55
46846;BME280;33947;46.804;134.252;2023-05-10T06:28:30;101068.25;;;14.78;42.80
46846;BME280;33947;46.804;134.252;2023-05-10T06:31:37;101072.25;;;15.15;41.91
46846;BME280;33947;46.804;134.252;2023-05-10T06:35:00;100975.59;;;14.51;42.58
46846;BME280;33947;46.804;134.252;2023-05-10T06:44:36;101011.97;;;14.55;42.26
46846;BME280;33947;46.804;134.252;2023-05-10T06:48:31;100984.31;;;14.06;43.17
46846;BME280;33947;46.804;134.252;2023-05-10T06:52:23;100930.25;;;13.45;43.42
46846;BME280;33947;46.804;134.252;2023-05-10T06:56:47;100987.41;;;13.66;43.81
46846;BME280;33947;46.804;134.252;2023-05-10T06:59:52;101073.44;;;14.30;43.72
46846;BME280;33947;46.804;134.252;2023-05-10T07:03:02;101104.22;;;14.42;43.71
46846;BME280;33947;46.804;134.252;2023-05-10T07:06:12;101079.03;;;14.49;43.59
46846;BME280;33947;46.804;134.252;2023-05-10T07:09:39;101097.41;;;14.33;44.30
46846;BME280;33947;46.804;134.252;2023-05-10T07:12:49;101066.25;;;14.05;44.48
46846;BME280;33947;46.804;134.252;2023-05-10T07:15:59;101106.22;;;14.35;44.74
46846;BME280;33947;46.804;134.252;2023-05-10T07:19:33;101028.06;;;14.01;44.28
46846;BME280;33947;46.804;134.252;2023-05-10T07:23:03;101026.06;;;13.81;45.00
46846;BME280;33947;46.804;134.252;2023-05-10T07:26:59;101033.78;;;13.91;44.63
46846;BME280;33947;46.804;134.252;2023-05-10T07:31:31;101003.44;;;13.66;44.50
46846;BME280;33947;46.804;134.252;2023-05-10T07:35:45;101038.03;;;13.96;45.91
46846;BME280;33947;46.804;134.252;2023-05-10T07:39:17;101058.56;;;13.94;44.91
46846;BME280;33947;46.804;134.252;2023-05-10T07:43:39;101135.22;;;13.62;46.87
46846;BME280;33947;46.804;134.252;2023-05-10T07:47:57;101046.69;;;13.17;46.76
46846;BME280;33947;46.804;134.252;2023-05-10T07:52:20;100970.44;;;13.10;46.16
46846;BME280;33947;46.804;134.252;2023-05-10T07:56:31;100993.19;;;13.22;46.00
46846;BME280;33947;46.804;134.252;2023-05-10T08:00:41;101020.59;;;13.57;45.59
46846;BME280;33947;46.804;134.252;2023-05-10T08:03:50;101095.94;;;13.96;46.13
46846;BME280;33947;46.804;134.252;2023-05-10T08:06:54;101116.59;;;14.17;45.47
46846;BME280;33947;46.804;134.252;2023-05-10T08:10:01;101107.25;;;14.04;45.96
46846;BME280;33947;46.804;134.252;2023-05-10T08:13:10;101123.66;;;14.20;45.70
46846;BME280;33947;46.804;134.252;2023-05-10T08:16:14;101104.09;;;13.91;46.20
46846;BME280;33947;46.804;134.252;2023-05-10T08:19:19;101139.84;;;13.57;47.36
46846;BME280;33947;46.804;134.252;2023-05-10T08:22:28;101117.38;;;13.32;47.38
46846;BME280;33947;46.804;134.252;2023-05-10T08:25:38;101139.66;;;13.00;48.67
46846;BME280;33947;46.804;134.252;2023-05-10T08:28:42;101137.44;;;13.16;48.34
46846;BME280;33947;46.804;134.252;2023-05-10T08:31:45;101139.03;;;12.90;48.57
46846;BME280;33947;46.804;134.252;2023-05-10T08:34:50;101112.19;;;12.96;48.71
46846;BME280;33947;46.804;134.252;2023-05-10T08:37:54;101108.22;;;13.11;48.08
46846;BME280;33947;46.804;134.252;2023-05-10T08:41:07;101109.25;;;13.06;48.09
46846;BME280;33947;46.804;134.252;2023-05-10T08:44:15;101118.50;;;13.25;47.50
46846;BME280;33947;46.804;134.252;2023-05-10T08:47:26;101134.31;;;13.31;47.96
46846;BME280;33947;46.804;134.252;2023-05-10T08:56:28;101022.56;;;12.26;48.01
46846;BME280;33947;46.804;134.252;2023-05-10T09:06:20;101129.78;;;12.70;48.59
46846;BME280;33947;46.804;134.252;2023-05-10T09:10:30;101062.16;;;12.05;49.12
46846;BME280;33947;46.804;134.252;2023-05-10T09:19:25;101043.97;;;11.85;49.54
46846;BME280;33947;46.804;134.252;2023-05-10T09:23:15;101101.69;;;12.22;49.35
46846;BME280;33947;46.804;134.252;2023-05-10T09:27:26;101075.22;;;12.16;49.64
46846;BME280;33947;46.804;134.252;2023-05-10T09:31:56;101094.19;;;12.02;50.20
46846;BME280;33947;46.804;134.252;2023-05-10T09:35:51;101001.59;;;11.38;50.42
46846;BME280;33947;46.804;134.252;2023-05-10T09:39:36;101073.19;;;11.86;50.18
46846;BME280;33947;46.804;134.252;2023-05-10T09:43:09;101089.38;;;11.79;51.27
46846;BME280;33947;46.804;134.252;2023-05-10T09:46:19;101150.72;;;12.13;50.01
46846;BME280;33947;46.804;134.252;2023-05-10T09:49:27;101157.28;;;11.97;50.88
46846;BME280;33947;46.804;134.252;2023-05-10T09:53:03;101168.16;;;11.86;51.36
46846;BME280;33947;46.804;134.252;2023-05-10T09:56:09;101176.03;;;11.92;51.21
46846;BME280;33947;46.804;134.252;2023-05-10T09:59:14;101113.09;;;11.47;50.92
46846;BME280;33947;46.804;134.252;2023-05-10T10:02:28;101137.94;;;11.48;52.03
46846;BME280;33947;46.804;134.252;2023-05-10T10:05:34;101190.06;;;11.58;51.79
46846;BME280;33947;46.804;134.252;2023-05-10T10:08:46;101159.78;;;11.20;52.03
46846;BME280;33947;46.804;134.252;2023-05-10T10:11:55;101191.31;;;11.40;51.90
46846;BME280;33947;46.804;134.252;2023-05-10T10:15:01;101179.22;;;11.23;51.83
46846;BME280;33947;46.804;134.252;2023-05-10T10:18:33;101022.66;;;10.12;52.80
46846;BME280;33947;46.804;134.252;2023-05-10T10:22:29;101194.97;;;10.85;53.38
46846;BME280;33947;46.804;134.252;2023-05-10T10:25:36;101198.34;;;10.42;55.08
46846;BME280;33947;46.804;134.252;2023-05-10T10:35:38;101183.78;;;10.07;54.54
46846;BME280;33947;46.804;134.252;2023-05-10T10:42:16;101179.75;;;9.78;55.59
46846;BME280;33947;46.804;134.252;2023-05-10T10:50:06;101223.50;;;9.44;56.98
46846;BME280;33947;46.804;134.252;2023-05-10T10:53:11;101221.03;;;9.29;56.18
46846;BME280;33947;46.804;134.252;2023-05-10T10:56:22;101221.94;;;9.26;57.19
46846;BME280;33947;46.804;134.252;2023-05-10T10:59:27;101115.69;;;8.63;56.44
46846;BME280;33947;46.804;134.252;2023-05-10T11:02:45;101235.81;;;9.48;56.11
46846;BME280;33947;46.804;134.252;2023-05-10T11:05:53;101232.59;;;9.18;58.38
46846;BME280;33947;46.804;134.252;2023-05-10T11:09:11;101231.81;;;9.11;57.53
46846;BME280;33947;46.804;134.252;2023-05-10T11:12:16;101201.28;;;8.64;57.58
46846;BME280;33947;46.804;134.252;2023-05-10T11:15:37;101216.47;;;8.40;58.79
46846;BME280;33947;46.804;134.252;2023-05-10T11:18:58;101239.56;;;8.18;60.68
46846;BME280;33947;46.804;134.252;2023-05-10T11:22:13;101236.91;;;8.13;60.29
46846;BME280;33947;46.804;134.252;2023-05-10T11:25:26;101218.41;;;8.08;59.63
46846;BME280;33947;46.804;134.252;2023-05-10T11:28:47;101194.56;;;8.11;58.88
46846;BME280;33947;46.804;134.252;2023-05-10T11:31:51;101235.19;;;8.04;59.37
46846;BME280;33947;46.804;134.252;2023-05-10T11:34:55;101206.31;;;7.58;59.87
46846;BME280;33947;46.804;134.252;2023-05-10T11:37:59;101245.94;;;7.72;60.00
46846;BME280;33947;46.804;134.252;2023-05-10T11:41:03;101234.56;;;7.37;60.97
46846;BME280;33947;46.804;134.252;2023-05-10T11:44:10;101209.97;;;7.13;61.38
46846;BME280;33947;46.804;134.252;2023-05-10T11:47:16;101254.84;;;7.36;61.49
46846;BME280;33947;46.804;134.252;2023-05-10T11:50:20;101265.38;;;7.49;61.28
46846;BME280;33947;46.804;134.252;2023-05-10T11:53:32;101238.13;;;7.27;61.67
46846;BME280;33947;46.804;134.252;2023-05-10T11:56:42;101266.28;;;7.31;61.47
46846;BME280;33947;46.804;134.252;2023-05-10T11:59:56;101261.91;;;7.09;62.23
46846;BME280;33947;46.804;134.252;2023-05-10T12:03:08;101268.09;;;6.91;63.47
46846;BME280;33947;46.804;134.252;2023-05-10T12:06:21;101272.50;;;7.03;62.60
46846;BME280;33947;46.804;134.252;2023-05-10T12:09:25;101273.38;;;7.01;62.06
46846;BME280;33947;46.804;134.252;2023-05-10T12:12:46;101273.38;;;6.82;62.40
46846;BME280;33947;46.804;134.252;2023-05-10T12:16:15;101254.00;;;6.47;64.34
46846;BME280;33947;46.804;134.252;2023-05-10T12:19:24;101269.84;;;6.57;63.04
46846;BME280;33947;46.804;134.252;2023-05-10T12:22:33;101240.81;;;6.57;62.07
46846;BME280;33947;46.804;134.252;2023-05-10T12:25:41;101236.41;;;6.62;61.54
46846;BME280;33947;46.804;134.252;2023-05-10T12:28:53;101241.66;;;6.48;61.96
46846;BME280;33947;46.804;134.252;2023-05-10T12:32:02;101278.63;;;6.51;61.98
46846;BME280;33947;46.804;134.252;2023-05-10T12:35:09;101243.34;;;6.02;63.50
46846;BME280;33947;46.804;134.252;2023-05-10T12:38:35;101292.59;;;6.08;64.70
46846;BME280;33947;46.804;134.252;2023-05-10T12:41:43;101292.59;;;6.10;63.84
46846;BME280;33947;46.804;134.252;2023-05-10T12:44:47;101294.38;;;6.09;63.72
46846;BME280;33947;46.804;134.252;2023-05-10T12:47:51;101300.47;;;6.03;63.82
46846;BME280;33947;46.804;134.252;2023-05-10T12:50:55;101287.28;;;6.03;63.01
46846;BME280;33947;46.804;134.252;2023-05-10T12:54:00;101299.66;;;6.15;63.12
46846;BME280;33947;46.804;134.252;2023-05-10T12:57:04;101305.72;;;6.00;63.75
46846;BME280;33947;46.804;134.252;2023-05-10T13:00:10;101308.31;;;5.94;63.51
46846;BME280;33947;46.804;134.252;2023-05-10T13:03:14;101283.63;;;5.79;63.84
46846;BME280;33947;46.804;134.252;2023-05-10T13:06:23;101259.81;;;5.59;64.01
46846;BME280;33947;46.804;134.252;2023-05-10T13:09:28;101298.63;;;5.85;63.93
46846;BME280;33947;46.804;134.252;2023-05-10T13:12:33;101304.59;;;5.53;65.50
46846;BME280;33947;46.804;134.252;2023-05-10T13:15:37;101294.81;;;5.38;65.82
46846;BME280;33947;46.804;134.252;2023-05-10T13:18:42;101294.94;;;5.55;64.82
46846;BME280;33947;46.804;134.252;2023-05-10T13:21:46;101270.28;;;5.47;64.19
46846;BME280;33947;46.804;134.252;2023-05-10T13:24:50;101309.91;;;5.58;64.46
46846;BME280;33947;46.804;134.252;2023-05-10T13:27:56;101306.19;;;5.31;64.92
46846;BME280;33947;46.804;134.252;2023-05-10T13:31:00;101292.75;;;4.97;66.10
46846;BME280;33947;46.804;134.252;2023-05-10T13:34:05;101298.13;;;5.11;66.28
46846;BME280;33947;46.804;134.252;2023-05-10T13:37:09;101304.19;;;4.99;66.42
46846;BME280;33947;46.804;134.252;2023-05-10T13:40:13;101305.16;;;5.12;65.98
46846;BME280;33947;46.804;134.252;2023-05-10T13:43:20;101299.22;;;5.38;64.72
46846;BME280;33947;46.804;134.252;2023-05-10T13:46:24;101287.03;;;5.57;63.99
46846;BME280;33947;46.804;134.252;2023-05-10T13:49:30;101286.25;;;5.76;63.71
46846;BME280;33947;46.804;134.252;2023-05-10T13:52:37;101284.38;;;5.52;64.66
46846;BME280;33947;46.804;134.252;2023-05-10T13:55:41;101298.44;;;5.54;65.69
46846;BME280;33947;46.804;134.252;2023-05-10T13:58:49;101296.28;;;4.97;68.11
46846;BME280;33947;46.804;134.252;2023-05-10T14:01:53;101297.91;;;4.81;69.18
46846;BME280;33947;46.804;134.252;2023-05-10T14:04:57;101305.84;;;4.89;68.31
46846;BME280;33947;46.804;134.252;2023-05-10T14:08:14;101298.25;;;5.26;67.80
46846;BME280;33947;46.804;134.252;2023-05-10T14:11:54;101182.84;;;4.71;66.07
46846;BME280;33947;46.804;134.252;2023-05-10T14:15:13;101303.47;;;5.20;67.15
46846;BME280;33947;46.804;134.252;2023-05-10T14:18:17;101286.81;;;5.22;66.38
46846;BME280;33947;46.804;134.252;2023-05-10T14:21:22;101296.56;;;5.34;65.57
46846;BME280;33947;46.804;134.252;2023-05-10T14:24:28;101292.91;;;5.14;66.52
46846;BME280;33947;46.804;134.252;2023-05-10T14:27:32;101287.25;;;4.67;67.23
46846;BME280;33947;46.804;134.252;2023-05-10T14:30:37;101279.91;;;4.35;69.38
46846;BME280;33947;46.804;134.252;2023-05-10T14:33:41;101293.16;;;4.44;68.94
46846;BME280;33947;46.804;134.252;2023-05-10T14:36:47;101306.31;;;4.44;68.97
46846;BME280;33947;46.804;134.252;2023-05-10T14:39:51;101294.09;;;4.51;68.87
46846;BME280;33947;46.804;134.252;2023-05-10T14:42:56;101299.41;;;4.56;67.60
46846;BME280;33947;46.804;134.252;2023-05-10T14:46:03;101301.03;;;4.43;67.85
46846;BME280;33947;46.804;134.252;2023-05-10T14:49:07;101299.03;;;4.20;68.32
46846;BME280;33947;46.804;134.252;2023-05-10T14:52:13;101310.13;;;3.97;70.18
46846;BME280;33947;46.804;134.252;2023-05-10T14:55:17;101320.59;;;3.93;70.58
46846;BME280;33947;46.804;134.252;2023-05-10T14:58:22;101320.59;;;3.94;71.03
46846;BME280;33947;46.804;134.252;2023-05-10T15:01:26;101305.88;;;4.07;69.06
46846;BME280;33947;46.804;134.252;2023-05-10T15:04:33;101331.53;;;4.28;68.74
46846;BME280;33947;46.804;134.252;2023-05-10T15:07:39;101324.44;;;4.21;68.28
46846;BME280;33947;46.804;134.252;2023-05-10T15:10:43;101311.13;;;4.07;68.23
46846;BME280;33947;46.804;134.252;2023-05-10T15:13:51;101308.25;;;3.87;68.69
46846;BME280;33947;46.804;134.252;2023-05-10T15:17:00;101322.59;;;4.11;68.50
46846;BME280;33947;46.804;134.252;2023-05-10T15:20:04;101305.81;;;3.99;68.43
46846;BME280;33947;46.804;134.252;2023-05-10T15:23:18;101287.16;;;3.81;68.76
46846;BME280;33947;46.804;134.252;2023-05-10T15:26:22;101292.44;;;3.84;68.88
46846;BME280;33947;46.804;134.252;2023-05-10T15:29:29;101311.31;;;4.19;67.70
46846;BME280;33947;46.804;134.252;2023-05-10T15:32:33;101292.56;;;3.93;69.18
46846;BME280;33947;46.804;134.252;2023-05-10T15:35:37;101297.84;;;3.96;68.77
46846;BME280;33947;46.804;134.252;2023-05-10T15:38:43;101288.16;;;3.26;71.94
46846;BME280;33947;46.804;134.252;2023-05-10T15:41:52;101295.84;;;3.15;73.60
46846;BME280;33947;46.804;134.252;2023-05-10T15:44:58;101299.69;;;3.39;72.25
46846;BME280;33947;46.804;134.252;2023-05-10T15:48:07;101298.22;;;3.58;71.56
46846;BME280;33947;46.804;134.252;2023-05-10T15:51:11;101294.88;;;3.70;70.06
46846;BME280;33947;46.804;134.252;2023-05-10T15:54:15;101299.34;;;3.75;69.94
46846;BME280;33947;46.804;134.252;2023-05-10T15:57:24;101305.47;;;3.76;69.52
46846;BME280;33947;46.804;134.252;2023-05-10T16:00:28;101293.75;;;3.49;70.24
46846;BME280;33947;46.804;134.252;2023-05-10T16:03:35;101295.97;;;3.23;71.11
46846;BME280;33947;46.804;134.252;2023-05-10T16:06:39;101305.47;;;3.14;72.15
46846;BME280;33947;46.804;134.252;2023-05-10T16:09:43;101304.72;;;2.71;74.27
46846;BME280;33947;46.804;134.252;2023-05-10T16:12:50;101323.41;;;2.88;74.12
46846;BME280;33947;46.804;134.252;2023-05-10T16:15:54;101328.59;;;2.85;75.78
46846;BME280;33947;46.804;134.252;2023-05-10T16:19:01;101327.09;;;2.99;74.42
46846;BME280;33947;46.804;134.252;2023-05-10T16:22:06;101318.19;;;2.91;75.00
46846;BME280;33947;46.804;134.252;2023-05-10T16:25:10;101320.44;;;3.22;73.20
46846;BME280;33947;46.804;134.252;2023-05-10T16:28:17;101309.94;;;3.20;72.25
46846;BME280;33947;46.804;134.252;2023-05-10T16:31:23;101311.84;;;3.30;70.54
46846;BME280;33947;46.804;134.252;2023-05-10T16:34:28;101323.91;;;3.19;71.78
46846;BME280;33947;46.804;134.252;2023-05-10T16:37:32;101309.84;;;3.14;71.51
46846;BME280;33947;46.804;134.252;2023-05-10T16:40:36;101323.38;;;3.40;70.16
46846;BME280;33947;46.804;134.252;2023-05-10T16:43:42;101325.97;;;3.39;69.17
46846;BME280;33947;46.804;134.252;2023-05-10T16:46:46;101318.75;;;3.25;70.42
46846;BME280;33947;46.804;134.252;2023-05-10T16:49:50;101317.00;;;3.24;69.93
46846;BME280;33947;46.804;134.252;2023-05-10T16:52:54;101312.44;;;3.12;70.44
46846;BME280;33947;46.804;134.252;2023-05-10T16:55:58;101272.94;;;3.04;70.14
46846;BME280;33947;46.804;134.252;2023-05-10T16:59:03;101302.31;;;2.83;71.24
46846;BME280;33947;46.804;134.252;2023-05-10T17:02:07;101304.03;;;2.80;71.93
46846;BME280;33947;46.804;134.252;2023-05-10T17:05:11;101287.19;;;2.67;71.60
46846;BME280;33947;46.804;134.252;2023-05-10T17:08:16;101286.00;;;2.51;71.63
46846;BME280;33947;46.804;134.252;2023-05-10T17:11:20;101288.22;;;2.27;73.18
46846;BME280;33947;46.804;134.252;2023-05-10T17:14:24;101274.16;;;2.24;73.08
46846;BME280;33947;46.804;134.252;2023-05-10T17:17:32;101277.06;;;2.39;72.55
46846;BME280;33947;46.804;134.252;2023-05-10T17:20:42;101264.56;;;2.26;72.74
46846;BME280;33947;46.804;134.252;2023-05-10T17:23:51;101267.44;;;2.40;72.85
46846;BME280;33947;46.804;134.252;2023-05-10T17:27:00;101262.88;;;2.28;73.18
46846;BME280;33947;46.804;134.252;2023-05-10T17:30:10;101274.06;;;2.19;72.76
46846;BME280;33947;46.804;134.252;2023-05-10T17:33:14;101292.63;;;2.30;73.66
46846;BME280;33947;46.804;134.252;2023-05-10T17:36:18;101283.25;;;2.43;73.17
46846;BME280;33947;46.804;134.252;2023-05-10T17:39:23;101288.47;;;2.43;73.00
46846;BME280;33947;46.804;134.252;2023-05-10T17:42:34;101318.59;;;2.16;77.07
46846;BME280;33947;46.804;134.252;2023-05-10T17:45:38;101289.63;;;2.10;76.32
46846;BME280;33947;46.804;134.252;2023-05-10T17:48:42;101266.06;;;2.11;74.42
46846;BME280;33947;46.804;134.252;2023-05-10T17:51:46;101294.25;;;2.23;74.52
46846;BME280;33947;46.804;134.252;2023-05-10T17:54:52;101284.91;;;1.93;76.31
46846;BME280;33947;46.804;134.252;2023-05-10T17:57:57;101309.56;;;2.03;74.91